Rainbow, Texas
Current Conditions -  °F | °C
As of 6:55 AM on Thursday 23 Oct 2014 (Local Time) from KGDJ Reporting Station
Overcast Overcast  
Wind Chill: 67°   Ceiling: 11000
Heat Index: 67°   Visibility: 10mi
Dew Point: 58°   Wind: 6mph
Humidity: 72%   Direction: 130°SE
Pressure: 30.13"   Gusts: NA
Location:  32.27°N, 97.7°W
Report Text: KGDJ 231155Z AUTO 13005KT 10SM SCT050 SCT090 OVC110 19/14 A3013 RMK AO2 T01930142 10215 20193
Loading
Personal Weather Stations






























Interactive Weather Map New forecast layout! Learn more

10-Day Weather Forecast

Advertisements
Track Severe Weather on mobile